sensor_id;sensor_type;location;lat;lon;timestamp;temperature;humidity
4058;DHT22;2044;48.692;9.020;2023-05-16T00:00:29;10.80;99.90
4058;DHT22;2044;48.692;9.020;2023-05-16T00:03:01;10.80;99.90
4058;DHT22;2044;48.692;9.020;2023-05-16T00:05:28;10.70;99.90
4058;DHT22;2044;48.692;9.020;2023-05-16T00:07:55;10.70;99.90
4058;DHT22;2044;48.692;9.020;2023-05-16T00:10:22;10.70;99.90
4058;DHT22;2044;48.692;9.020;2023-05-16T00:12:48;10.60;99.90
4058;DHT22;2044;48.692;9.020;2023-05-16T00:15:16;10.50;99.90
4058;DHT22;2044;48.692;9.020;2023-05-16T00:17:44;10.60;99.90
4058;DHT22;2044;48.692;9.020;2023-05-16T00:20:13;10.60;99.90
4058;DHT22;2044;48.692;9.020;2023-05-16T00:22:41;10.60;99.90
4058;DHT22;2044;48.692;9.020;2023-05-16T00:25:08;10.50;99.90
4058;DHT22;2044;48.692;9.020;2023-05-16T00:27:35;10.50;99.90
4058;DHT22;2044;48.692;9.020;2023-05-16T00:30:02;10.50;99.90
4058;DHT22;2044;48.692;9.020;2023-05-16T00:32:29;10.50;99.90
4058;DHT22;2044;48.692;9.020;2023-05-16T00:34:55;10.50;99.90
4058;DHT22;2044;48.692;9.020;2023-05-16T00:37:23;10.50;99.90
4058;DHT22;2044;48.692;9.020;2023-05-16T00:39:50;10.50;99.90
4058;DHT22;2044;48.692;9.020;2023-05-16T00:42:18;10.50;99.90
4058;DHT22;2044;48.692;9.020;2023-05-16T00:44:45;10.40;99.90
4058;DHT22;2044;48.692;9.020;2023-05-16T00:49:39;10.30;99.90
4058;DHT22;2044;48.692;9.020;2023-05-16T00:52:06;10.30;99.90
4058;DHT22;2044;48.692;9.020;2023-05-16T00:54:34;10.20;99.90
4058;DHT22;2044;48.692;9.020;2023-05-16T00:57:01;10.20;99.90
4058;DHT22;2044;48.692;9.020;2023-05-16T00:59:28;10.10;99.90
4058;DHT22;2044;48.692;9.020;2023-05-16T01:01:55;10.10;99.90
4058;DHT22;2044;48.692;9.020;2023-05-16T01:04:22;10.10;99.90
4058;DHT22;2044;48.692;9.020;2023-05-16T01:06:49;10.10;99.90
4058;DHT22;2044;48.692;9.020;2023-05-16T01:09:16;10.10;99.90
4058;DHT22;2044;48.692;9.020;2023-05-16T01:11:50;10.10;99.90
4058;DHT22;2044;48.692;9.020;2023-05-16T01:14:23;10.10;99.90
4058;DHT22;2044;48.692;9.020;2023-05-16T01:16:56;10.10;99.90
4058;DHT22;2044;48.692;9.020;2023-05-16T01:19:38;10.10;99.90
4058;DHT22;2044;48.692;9.020;2023-05-16T01:22:11;10.10;99.90
4058;DHT22;2044;48.692;9.020;2023-05-16T01:24:47;10.10;99.90
4058;DHT22;2044;48.692;9.020;2023-05-16T01:27:20;10.10;99.90
4058;DHT22;2044;48.692;9.020;2023-05-16T01:29:54;10.00;99.90
4058;DHT22;2044;48.692;9.020;2023-05-16T01:32:21;10.00;99.90
4058;DHT22;2044;48.692;9.020;2023-05-16T01:34:49;10.00;99.90
4058;DHT22;2044;48.692;9.020;2023-05-16T01:37:20;9.90;99.90
4058;DHT22;2044;48.692;9.020;2023-05-16T01:39:55;9.90;99.90
4058;DHT22;2044;48.692;9.020;2023-05-16T01:42:26;9.90;99.90
4058;DHT22;2044;48.692;9.020;2023-05-16T01:45:01;9.80;99.90
4058;DHT22;2044;48.692;9.020;2023-05-16T01:47:32;9.80;99.90
4058;DHT22;2044;48.692;9.020;2023-05-16T01:50:06;9.80;99.90
4058;DHT22;2044;48.692;9.020;2023-05-16T01:52:39;9.70;99.90
4058;DHT22;2044;48.692;9.020;2023-05-16T01:55:10;9.70;99.90
4058;DHT22;2044;48.692;9.020;2023-05-16T01:57:39;9.70;99.90
4058;DHT22;2044;48.692;9.020;2023-05-16T02:00:07;9.50;99.90
4058;DHT22;2044;48.692;9.020;2023-05-16T02:02:34;9.50;99.90
4058;DHT22;2044;48.692;9.020;2023-05-16T02:05:01;9.40;99.90
4058;DHT22;2044;48.692;9.020;2023-05-16T02:07:27;9.30;99.90
4058;DHT22;2044;48.692;9.020;2023-05-16T02:09:54;9.20;99.90
4058;DHT22;2044;48.692;9.020;2023-05-16T02:12:21;9.20;99.90
4058;DHT22;2044;48.692;9.020;2023-05-16T02:14:49;9.10;99.90
4058;DHT22;2044;48.692;9.020;2023-05-16T02:17:15;9.10;99.90
4058;DHT22;2044;48.692;9.020;2023-05-16T02:19:42;9.00;99.90
4058;DHT22;2044;48.692;9.020;2023-05-16T02:22:09;9.00;99.90
4058;DHT22;2044;48.692;9.020;2023-05-16T02:24:36;9.00;99.90
4058;DHT22;2044;48.692;9.020;2023-05-16T02:27:03;8.90;99.90
4058;DHT22;2044;48.692;9.020;2023-05-16T02:29:30;9.00;99.90
4058;DHT22;2044;48.692;9.020;2023-05-16T02:31:58;9.00;99.90
4058;DHT22;2044;48.692;9.020;2023-05-16T02:34:24;9.00;99.90
4058;DHT22;2044;48.692;9.020;2023-05-16T02:36:51;9.00;99.90
4058;DHT22;2044;48.692;9.020;2023-05-16T02:39:18;9.00;99.90
4058;DHT22;2044;48.692;9.020;2023-05-16T02:41:44;9.10;99.90
4058;DHT22;2044;48.692;9.020;2023-05-16T02:44:11;9.10;99.90
4058;DHT22;2044;48.692;9.020;2023-05-16T02:46:38;9.10;99.90
4058;DHT22;2044;48.692;9.020;2023-05-16T02:49:06;9.10;99.90
4058;DHT22;2044;48.692;9.020;2023-05-16T02:51:32;9.10;99.90
4058;DHT22;2044;48.692;9.020;2023-05-16T02:53:59;9.00;99.90
4058;DHT22;2044;48.692;9.020;2023-05-16T02:58:54;9.00;99.90
4058;DHT22;2044;48.692;9.020;2023-05-16T03:01:20;9.00;99.90
4058;DHT22;2044;48.692;9.020;2023-05-16T03:03:47;8.90;99.90
4058;DHT22;2044;48.692;9.020;2023-05-16T03:06:15;8.90;99.90
4058;DHT22;2044;48.692;9.020;2023-05-16T03:08:42;8.90;99.90
4058;DHT22;2044;48.692;9.020;2023-05-16T03:11:08;8.90;99.90
4058;DHT22;2044;48.692;9.020;2023-05-16T03:13:35;8.90;99.90
4058;DHT22;2044;48.692;9.020;2023-05-16T03:16:02;8.90;99.90
4058;DHT22;2044;48.692;9.020;2023-05-16T03:18:29;8.90;99.90
4058;DHT22;2044;48.692;9.020;2023-05-16T03:20:56;8.90;99.90
4058;DHT22;2044;48.692;9.020;2023-05-16T03:23:24;8.90;99.90
4058;DHT22;2044;48.692;9.020;2023-05-16T03:25:51;8.90;99.90
4058;DHT22;2044;48.692;9.020;2023-05-16T03:28:18;8.90;99.90
4058;DHT22;2044;48.692;9.020;2023-05-16T03:30:45;8.90;99.90
4058;DHT22;2044;48.692;9.020;2023-05-16T03:33:11;8.90;99.90
4058;DHT22;2044;48.692;9.020;2023-05-16T03:35:38;8.90;99.90
4058;DHT22;2044;48.692;9.020;2023-05-16T03:38:06;9.00;99.90
4058;DHT22;2044;48.692;9.020;2023-05-16T03:40:34;9.00;99.90
4058;DHT22;2044;48.692;9.020;2023-05-16T03:43:00;9.00;99.90
4058;DHT22;2044;48.692;9.020;2023-05-16T03:45:28;9.10;99.90
4058;DHT22;2044;48.692;9.020;2023-05-16T03:47:55;9.20;99.90
4058;DHT22;2044;48.692;9.020;2023-05-16T03:50:22;9.20;99.90
4058;DHT22;2044;48.692;9.020;2023-05-16T03:52:49;9.20;99.90
4058;DHT22;2044;48.692;9.020;2023-05-16T03:55:18;9.20;99.90
4058;DHT22;2044;48.692;9.020;2023-05-16T03:57:46;9.30;99.90
4058;DHT22;2044;48.692;9.020;2023-05-16T04:00:14;9.30;99.90
4058;DHT22;2044;48.692;9.020;2023-05-16T04:02:41;9.40;99.90
4058;DHT22;2044;48.692;9.020;2023-05-16T04:05:09;9.40;99.90
4058;DHT22;2044;48.692;9.020;2023-05-16T04:07:36;9.50;99.90
4058;DHT22;2044;48.692;9.020;2023-05-16T04:10:03;9.50;99.90
4058;DHT22;2044;48.692;9.020;2023-05-16T04:12:30;9.50;99.90
4058;DHT22;2044;48.692;9.020;2023-05-16T04:14:58;9.60;99.90
4058;DHT22;2044;48.692;9.020;2023-05-16T04:17:25;9.60;99.90
4058;DHT22;2044;48.692;9.020;2023-05-16T04:19:52;9.60;99.90
4058;DHT22;2044;48.692;9.020;2023-05-16T04:22:20;9.70;99.90
4058;DHT22;2044;48.692;9.020;2023-05-16T04:24:46;9.70;99.90
4058;DHT22;2044;48.692;9.020;2023-05-16T04:27:13;9.70;99.90
4058;DHT22;2044;48.692;9.020;2023-05-16T04:29:40;9.70;99.90
4058;DHT22;2044;48.692;9.020;2023-05-16T04:32:08;9.70;99.90
4058;DHT22;2044;48.692;9.020;2023-05-16T04:34:35;9.80;99.90
4058;DHT22;2044;48.692;9.020;2023-05-16T04:39:32;9.90;99.90
4058;DHT22;2044;48.692;9.020;2023-05-16T04:41:58;9.90;99.90
4058;DHT22;2044;48.692;9.020;2023-05-16T04:44:25;9.90;99.90
4058;DHT22;2044;48.692;9.020;2023-05-16T04:46:52;9.90;99.90
4058;DHT22;2044;48.692;9.020;2023-05-16T04:49:21;10.00;99.90
4058;DHT22;2044;48.692;9.020;2023-05-16T04:51:48;10.00;99.90
4058;DHT22;2044;48.692;9.020;2023-05-16T04:54:14;10.00;99.90
4058;DHT22;2044;48.692;9.020;2023-05-16T04:56:41;10.00;99.90
4058;DHT22;2044;48.692;9.020;2023-05-16T04:59:08;10.00;99.90
4058;DHT22;2044;48.692;9.020;2023-05-16T05:01:34;10.00;99.90
4058;DHT22;2044;48.692;9.020;2023-05-16T05:04:01;10.00;99.90
4058;DHT22;2044;48.692;9.020;2023-05-16T05:06:29;10.10;99.90
4058;DHT22;2044;48.692;9.020;2023-05-16T05:08:56;10.20;99.90
4058;DHT22;2044;48.692;9.020;2023-05-16T05:11:23;10.10;99.90
4058;DHT22;2044;48.692;9.020;2023-05-16T05:13:51;10.10;99.90
4058;DHT22;2044;48.692;9.020;2023-05-16T05:16:18;10.10;99.90
4058;DHT22;2044;48.692;9.020;2023-05-16T05:18:44;10.10;99.90
4058;DHT22;2044;48.692;9.020;2023-05-16T05:21:11;10.10;99.90
4058;DHT22;2044;48.692;9.020;2023-05-16T05:23:39;10.10;99.90
4058;DHT22;2044;48.692;9.020;2023-05-16T05:26:06;10.20;99.90
4058;DHT22;2044;48.692;9.020;2023-05-16T05:28:33;10.20;99.90
4058;DHT22;2044;48.692;9.020;2023-05-16T05:33:27;10.30;99.90
4058;DHT22;2044;48.692;9.020;2023-05-16T05:35:54;10.30;99.90
4058;DHT22;2044;48.692;9.020;2023-05-16T05:38:20;10.30;99.90
4058;DHT22;2044;48.692;9.020;2023-05-16T05:40:48;10.40;99.90
4058;DHT22;2044;48.692;9.020;2023-05-16T05:43:15;10.40;99.90
4058;DHT22;2044;48.692;9.020;2023-05-16T05:45:42;10.40;99.90
4058;DHT22;2044;48.692;9.020;2023-05-16T05:48:09;10.40;99.90
4058;DHT22;2044;48.692;9.020;2023-05-16T05:50:36;10.40;99.90
4058;DHT22;2044;48.692;9.020;2023-05-16T05:53:03;10.40;99.90
4058;DHT22;2044;48.692;9.020;2023-05-16T05:55:30;10.50;99.90
4058;DHT22;2044;48.692;9.020;2023-05-16T05:57:58;10.50;99.90
4058;DHT22;2044;48.692;9.020;2023-05-16T06:00:25;10.60;99.90
4058;DHT22;2044;48.692;9.020;2023-05-16T06:02:52;10.70;99.90
4058;DHT22;2044;48.692;9.020;2023-05-16T06:05:19;10.60;99.90
4058;DHT22;2044;48.692;9.020;2023-05-16T06:07:45;10.60;99.90
4058;DHT22;2044;48.692;9.020;2023-05-16T06:10:12;10.60;99.90
4058;DHT22;2044;48.692;9.020;2023-05-16T06:12:39;10.70;99.90
4058;DHT22;2044;48.692;9.020;2023-05-16T06:15:08;10.80;99.90
4058;DHT22;2044;48.692;9.020;2023-05-16T06:17:35;10.90;99.90
4058;DHT22;2044;48.692;9.020;2023-05-16T06:20:03;11.00;99.90
4058;DHT22;2044;48.692;9.020;2023-05-16T06:22:30;11.00;99.90
4058;DHT22;2044;48.692;9.020;2023-05-16T06:24:57;11.00;99.90
4058;DHT22;2044;48.692;9.020;2023-05-16T06:27:24;11.00;99.90
4058;DHT22;2044;48.692;9.020;2023-05-16T06:29:50;11.00;99.90
4058;DHT22;2044;48.692;9.020;2023-05-16T06:32:18;11.10;99.90
4058;DHT22;2044;48.692;9.020;2023-05-16T06:34:46;11.50;99.90
4058;DHT22;2044;48.692;9.020;2023-05-16T06:37:12;11.50;99.90
4058;DHT22;2044;48.692;9.020;2023-05-16T06:39:39;11.70;99.90
4058;DHT22;2044;48.692;9.020;2023-05-16T06:42:06;11.90;99.90
4058;DHT22;2044;48.692;9.020;2023-05-16T06:44:32;11.80;99.90
4058;DHT22;2044;48.692;9.020;2023-05-16T06:46:59;11.80;99.90
4058;DHT22;2044;48.692;9.020;2023-05-16T06:49:27;11.60;99.90
4058;DHT22;2044;48.692;9.020;2023-05-16T06:51:54;11.50;99.90
4058;DHT22;2044;48.692;9.020;2023-05-16T06:54:20;11.50;99.90
4058;DHT22;2044;48.692;9.020;2023-05-16T06:56:47;11.40;99.90
4058;DHT22;2044;48.692;9.020;2023-05-16T06:59:14;11.40;99.90
4058;DHT22;2044;48.692;9.020;2023-05-16T07:01:41;11.30;99.90
4058;DHT22;2044;48.692;9.020;2023-05-16T07:04:07;11.20;99.90
4058;DHT22;2044;48.692;9.020;2023-05-16T07:06:35;11.00;99.90
4058;DHT22;2044;48.692;9.020;2023-05-16T07:09:02;11.00;99.90
4058;DHT22;2044;48.692;9.020;2023-05-16T07:11:29;11.00;99.90
4058;DHT22;2044;48.692;9.020;2023-05-16T07:13:56;11.00;99.90
4058;DHT22;2044;48.692;9.020;2023-05-16T07:16:23;10.90;99.90
4058;DHT22;2044;48.692;9.020;2023-05-16T07:18:52;10.80;99.90
4058;DHT22;2044;48.692;9.020;2023-05-16T07:23:47;10.80;99.90
4058;DHT22;2044;48.692;9.020;2023-05-16T07:26:14;10.80;99.90
4058;DHT22;2044;48.692;9.020;2023-05-16T07:28:41;10.80;99.90
4058;DHT22;2044;48.692;9.020;2023-05-16T07:31:08;10.70;99.90
4058;DHT22;2044;48.692;9.020;2023-05-16T07:33:35;10.70;99.90
4058;DHT22;2044;48.692;9.020;2023-05-16T07:36:02;10.70;99.90
4058;DHT22;2044;48.692;9.020;2023-05-16T07:38:29;10.70;99.90
4058;DHT22;2044;48.692;9.020;2023-05-16T07:40:57;10.70;99.90
4058;DHT22;2044;48.692;9.020;2023-05-16T07:43:24;10.80;99.90
4058;DHT22;2044;48.692;9.020;2023-05-16T07:45:51;11.10;99.90
4058;DHT22;2044;48.692;9.020;2023-05-16T07:48:18;11.40;99.90
4058;DHT22;2044;48.692;9.020;2023-05-16T07:50:45;11.90;99.90
4058;DHT22;2044;48.692;9.020;2023-05-16T07:53:12;12.00;99.90
4058;DHT22;2044;48.692;9.020;2023-05-16T07:55:38;11.80;99.90
4058;DHT22;2044;48.692;9.020;2023-05-16T07:58:06;11.70;99.90
4058;DHT22;2044;48.692;9.020;2023-05-16T08:00:33;11.60;99.90
4058;DHT22;2044;48.692;9.020;2023-05-16T08:03:00;11.40;99.90
4058;DHT22;2044;48.692;9.020;2023-05-16T08:05:27;11.10;99.90
4058;DHT22;2044;48.692;9.020;2023-05-16T08:07:54;11.10;99.90
4058;DHT22;2044;48.692;9.020;2023-05-16T08:10:21;11.40;99.90
4058;DHT22;2044;48.692;9.020;2023-05-16T08:12:48;12.20;99.90
4058;DHT22;2044;48.692;9.020;2023-05-16T08:15:16;12.30;99.90
4058;DHT22;2044;48.692;9.020;2023-05-16T08:17:43;12.40;99.90
4058;DHT22;2044;48.692;9.020;2023-05-16T08:20:11;12.50;99.90
4058;DHT22;2044;48.692;9.020;2023-05-16T08:22:38;12.20;99.90
4058;DHT22;2044;48.692;9.020;2023-05-16T08:25:05;11.70;99.90
4058;DHT22;2044;48.692;9.020;2023-05-16T08:27:33;11.70;99.90
4058;DHT22;2044;48.692;9.020;2023-05-16T08:30:00;11.60;99.90
4058;DHT22;2044;48.692;9.020;2023-05-16T08:32:28;11.50;99.90
4058;DHT22;2044;48.692;9.020;2023-05-16T08:34:55;11.20;99.90
4058;DHT22;2044;48.692;9.020;2023-05-16T08:37:22;11.10;99.90
4058;DHT22;2044;48.692;9.020;2023-05-16T08:39:49;11.00;99.90
4058;DHT22;2044;48.692;9.020;2023-05-16T08:42:15;10.90;99.90
4058;DHT22;2044;48.692;9.020;2023-05-16T08:44:42;10.80;99.90
4058;DHT22;2044;48.692;9.020;2023-05-16T08:47:11;10.80;99.90
4058;DHT22;2044;48.692;9.020;2023-05-16T08:49:40;10.90;99.90
4058;DHT22;2044;48.692;9.020;2023-05-16T08:52:09;11.00;99.90
4058;DHT22;2044;48.692;9.020;2023-05-16T08:54:37;11.30;99.90
4058;DHT22;2044;48.692;9.020;2023-05-16T08:57:05;11.30;99.90
4058;DHT22;2044;48.692;9.020;2023-05-16T08:59:32;11.40;99.90
4058;DHT22;2044;48.692;9.020;2023-05-16T09:02:00;11.40;99.90
4058;DHT22;2044;48.692;9.020;2023-05-16T09:04:27;11.40;99.90
4058;DHT22;2044;48.692;9.020;2023-05-16T09:06:55;11.40;99.90
4058;DHT22;2044;48.692;9.020;2023-05-16T09:09:23;11.20;99.90
4058;DHT22;2044;48.692;9.020;2023-05-16T09:11:49;11.20;99.90
4058;DHT22;2044;48.692;9.020;2023-05-16T09:16:44;11.00;99.90
4058;DHT22;2044;48.692;9.020;2023-05-16T09:19:12;11.00;99.90
4058;DHT22;2044;48.692;9.020;2023-05-16T09:21:39;11.10;99.90
4058;DHT22;2044;48.692;9.020;2023-05-16T09:24:08;11.40;99.90
4058;DHT22;2044;48.692;9.020;2023-05-16T09:26:37;11.50;99.90
4058;DHT22;2044;48.692;9.020;2023-05-16T09:29:09;11.50;99.90
4058;DHT22;2044;48.692;9.020;2023-05-16T09:31:37;11.90;99.90
4058;DHT22;2044;48.692;9.020;2023-05-16T09:34:06;12.20;99.90
4058;DHT22;2044;48.692;9.020;2023-05-16T09:36:35;12.20;99.90
4058;DHT22;2044;48.692;9.020;2023-05-16T09:39:02;12.20;99.90
4058;DHT22;2044;48.692;9.020;2023-05-16T09:41:33;12.20;99.90
4058;DHT22;2044;48.692;9.020;2023-05-16T09:44:03;12.30;99.90
4058;DHT22;2044;48.692;9.020;2023-05-16T09:46:30;12.70;99.90
4058;DHT22;2044;48.692;9.020;2023-05-16T09:48:56;12.70;99.90
4058;DHT22;2044;48.692;9.020;2023-05-16T09:51:23;12.60;99.90
4058;DHT22;2044;48.692;9.020;2023-05-16T09:53:50;12.50;99.90
4058;DHT22;2044;48.692;9.020;2023-05-16T09:56:17;12.10;99.90
4058;DHT22;2044;48.692;9.020;2023-05-16T09:58:45;12.00;99.90
4058;DHT22;2044;48.692;9.020;2023-05-16T10:01:12;12.10;99.90
4058;DHT22;2044;48.692;9.020;2023-05-16T10:03:40;12.50;99.90
4058;DHT22;2044;48.692;9.020;2023-05-16T10:06:07;13.00;99.90
4058;DHT22;2044;48.692;9.020;2023-05-16T10:08:35;13.00;99.90
4058;DHT22;2044;48.692;9.020;2023-05-16T10:11:03;13.30;99.90
4058;DHT22;2044;48.692;9.020;2023-05-16T10:13:32;13.40;99.90
4058;DHT22;2044;48.692;9.020;2023-05-16T10:16:05;13.20;99.90
4058;DHT22;2044;48.692;9.020;2023-05-16T10:18:34;13.00;99.90
4058;DHT22;2044;48.692;9.020;2023-05-16T10:21:04;12.80;99.90
4058;DHT22;2044;48.692;9.020;2023-05-16T10:23:32;13.00;99.90
4058;DHT22;2044;48.692;9.020;2023-05-16T10:26:00;12.70;99.90
4058;DHT22;2044;48.692;9.020;2023-05-16T10:28:28;12.60;99.90
4058;DHT22;2044;48.692;9.020;2023-05-16T10:30:55;12.40;99.90
4058;DHT22;2044;48.692;9.020;2023-05-16T10:33:24;12.20;99.90
4058;DHT22;2044;48.692;9.020;2023-05-16T10:35:51;11.90;99.90
4058;DHT22;2044;48.692;9.020;2023-05-16T10:38:19;11.80;99.90
4058;DHT22;2044;48.692;9.020;2023-05-16T10:40:47;11.70;99.90
4058;DHT22;2044;48.692;9.020;2023-05-16T10:43:22;11.60;99.90
4058;DHT22;2044;48.692;9.020;2023-05-16T10:45:53;11.60;99.90
4058;DHT22;2044;48.692;9.020;2023-05-16T10:48:29;11.60;99.90
4058;DHT22;2044;48.692;9.020;2023-05-16T10:50:56;11.80;99.90
4058;DHT22;2044;48.692;9.020;2023-05-16T10:53:30;11.80;99.90
4058;DHT22;2044;48.692;9.020;2023-05-16T10:56:08;11.90;99.90
4058;DHT22;2044;48.692;9.020;2023-05-16T10:58:42;12.00;99.90
4058;DHT22;2044;48.692;9.020;2023-05-16T11:01:20;12.10;99.90
4058;DHT22;2044;48.692;9.020;2023-05-16T11:04:04;12.20;99.90
4058;DHT22;2044;48.692;9.020;2023-05-16T11:06:32;12.30;99.90
4058;DHT22;2044;48.692;9.020;2023-05-16T11:09:06;12.50;99.90
4058;DHT22;2044;48.692;9.020;2023-05-16T11:11:42;12.30;99.90
4058;DHT22;2044;48.692;9.020;2023-05-16T11:14:08;12.00;99.90
4058;DHT22;2044;48.692;9.020;2023-05-16T11:16:47;11.80;99.90
4058;DHT22;2044;48.692;9.020;2023-05-16T11:19:29;11.80;99.90
4058;DHT22;2044;48.692;9.020;2023-05-16T11:22:10;11.90;99.90
4058;DHT22;2044;48.692;9.020;2023-05-16T11:24:49;11.60;99.90
4058;DHT22;2044;48.692;9.020;2023-05-16T11:27:21;11.60;99.90
4058;DHT22;2044;48.692;9.020;2023-05-16T11:29:48;11.40;99.90
4058;DHT22;2044;48.692;9.020;2023-05-16T11:32:19;11.30;99.90
4058;DHT22;2044;48.692;9.020;2023-05-16T11:34:47;11.20;99.90
4058;DHT22;2044;48.692;9.020;2023-05-16T11:37:15;11.20;99.90
4058;DHT22;2044;48.692;9.020;2023-05-16T11:39:42;11.20;99.90
4058;DHT22;2044;48.692;9.020;2023-05-16T11:42:10;11.20;99.90
4058;DHT22;2044;48.692;9.020;2023-05-16T11:44:37;10.70;99.90
4058;DHT22;2044;48.692;9.020;2023-05-16T11:47:04;10.70;99.90
4058;DHT22;2044;48.692;9.020;2023-05-16T11:49:32;10.40;99.90
4058;DHT22;2044;48.692;9.020;2023-05-16T11:52:01;10.40;99.90
4058;DHT22;2044;48.692;9.020;2023-05-16T11:54:28;10.40;99.90
4058;DHT22;2044;48.692;9.020;2023-05-16T11:56:55;10.40;99.90
4058;DHT22;2044;48.692;9.020;2023-05-16T11:59:22;10.50;99.90
4058;DHT22;2044;48.692;9.020;2023-05-16T12:01:48;10.60;99.90
4058;DHT22;2044;48.692;9.020;2023-05-16T12:04:16;10.70;99.90
4058;DHT22;2044;48.692;9.020;2023-05-16T12:06:57;11.10;99.90
4058;DHT22;2044;48.692;9.020;2023-05-16T12:09:26;11.20;99.90
4058;DHT22;2044;48.692;9.020;2023-05-16T12:11:53;11.50;99.90
4058;DHT22;2044;48.692;9.020;2023-05-16T12:14:19;11.70;99.90
4058;DHT22;2044;48.692;9.020;2023-05-16T12:16:46;11.80;99.90
4058;DHT22;2044;48.692;9.020;2023-05-16T12:19:14;11.80;99.90
4058;DHT22;2044;48.692;9.020;2023-05-16T12:21:41;11.80;99.90
4058;DHT22;2044;48.692;9.020;2023-05-16T12:24:09;12.00;99.90
4058;DHT22;2044;48.692;9.020;2023-05-16T12:26:39;12.40;99.90
4058;DHT22;2044;48.692;9.020;2023-05-16T12:29:07;12.60;99.90
4058;DHT22;2044;48.692;9.020;2023-05-16T12:31:36;12.70;99.90
4058;DHT22;2044;48.692;9.020;2023-05-16T12:34:03;12.80;99.90
4058;DHT22;2044;48.692;9.020;2023-05-16T12:36:31;12.70;99.90
4058;DHT22;2044;48.692;9.020;2023-05-16T12:38:59;12.50;99.90
4058;DHT22;2044;48.692;9.020;2023-05-16T12:41:27;12.50;99.90
4058;DHT22;2044;48.692;9.020;2023-05-16T12:44:10;12.40;99.90
4058;DHT22;2044;48.692;9.020;2023-05-16T12:46:40;11.90;99.90
4058;DHT22;2044;48.692;9.020;2023-05-16T12:49:07;11.60;99.90
4058;DHT22;2044;48.692;9.020;2023-05-16T12:51:34;11.50;99.90
4058;DHT22;2044;48.692;9.020;2023-05-16T12:54:07;11.40;99.90
4058;DHT22;2044;48.692;9.020;2023-05-16T12:56:34;11.30;99.90
4058;DHT22;2044;48.692;9.020;2023-05-16T12:59:01;10.90;99.90
4058;DHT22;2044;48.692;9.020;2023-05-16T13:01:29;10.90;99.90
4058;DHT22;2044;48.692;9.020;2023-05-16T13:03:55;10.50;99.90
4058;DHT22;2044;48.692;9.020;2023-05-16T13:06:22;10.00;99.90
4058;DHT22;2044;48.692;9.020;2023-05-16T13:08:49;9.90;99.90
4058;DHT22;2044;48.692;9.020;2023-05-16T13:11:15;9.90;99.90
4058;DHT22;2044;48.692;9.020;2023-05-16T13:13:43;9.80;99.90
4058;DHT22;2044;48.692;9.020;2023-05-16T13:16:10;9.60;99.90
4058;DHT22;2044;48.692;9.020;2023-05-16T13:18:38;9.60;99.90
4058;DHT22;2044;48.692;9.020;2023-05-16T13:21:05;9.70;99.90
4058;DHT22;2044;48.692;9.020;2023-05-16T13:23:32;9.60;99.90
4058;DHT22;2044;48.692;9.020;2023-05-16T13:25:58;9.70;99.90
4058;DHT22;2044;48.692;9.020;2023-05-16T13:30:52;10.00;99.90
4058;DHT22;2044;48.692;9.020;2023-05-16T13:33:19;10.10;99.90
4058;DHT22;2044;48.692;9.020;2023-05-16T13:35:47;10.10;99.90
4058;DHT22;2044;48.692;9.020;2023-05-16T13:38:13;10.10;99.90
4058;DHT22;2044;48.692;9.020;2023-05-16T13:40:40;10.10;99.90
4058;DHT22;2044;48.692;9.020;2023-05-16T13:43:07;10.30;99.90
4058;DHT22;2044;48.692;9.020;2023-05-16T13:45:34;10.30;99.90
4058;DHT22;2044;48.692;9.020;2023-05-16T13:48:01;10.40;99.90
4058;DHT22;2044;48.692;9.020;2023-05-16T13:50:28;10.30;99.90
4058;DHT22;2044;48.692;9.020;2023-05-16T13:52:56;10.30;99.90
4058;DHT22;2044;48.692;9.020;2023-05-16T13:55:23;10.30;99.90
4058;DHT22;2044;48.692;9.020;2023-05-16T13:57:50;10.30;99.90
4058;DHT22;2044;48.692;9.020;2023-05-16T14:00:17;10.30;99.90
4058;DHT22;2044;48.692;9.020;2023-05-16T14:02:44;10.40;99.90
4058;DHT22;2044;48.692;9.020;2023-05-16T14:05:11;10.50;99.90
4058;DHT22;2044;48.692;9.020;2023-05-16T14:07:38;10.50;99.90
4058;DHT22;2044;48.692;9.020;2023-05-16T14:10:08;10.50;99.90
4058;DHT22;2044;48.692;9.020;2023-05-16T14:12:34;10.50;99.90
4058;DHT22;2044;48.692;9.020;2023-05-16T14:15:01;10.70;99.90
4058;DHT22;2044;48.692;9.020;2023-05-16T14:17:28;10.70;99.90
4058;DHT22;2044;48.692;9.020;2023-05-16T14:19:55;10.80;99.90
4058;DHT22;2044;48.692;9.020;2023-05-16T14:22:21;10.90;99.90
4058;DHT22;2044;48.692;9.020;2023-05-16T14:24:48;10.90;99.90
4058;DHT22;2044;48.692;9.020;2023-05-16T14:27:16;10.90;99.90
4058;DHT22;2044;48.692;9.020;2023-05-16T14:29:43;11.10;99.90
4058;DHT22;2044;48.692;9.020;2023-05-16T14:34:38;11.80;99.90
4058;DHT22;2044;48.692;9.020;2023-05-16T14:39:34;11.80;99.90
4058;DHT22;2044;48.692;9.020;2023-05-16T14:42:01;11.90;99.90
4058;DHT22;2044;48.692;9.020;2023-05-16T14:44:29;11.80;99.90
4058;DHT22;2044;48.692;9.020;2023-05-16T14:46:56;11.80;99.90
4058;DHT22;2044;48.692;9.020;2023-05-16T14:49:22;11.70;99.90
4058;DHT22;2044;48.692;9.020;2023-05-16T14:51:49;11.60;99.90
4058;DHT22;2044;48.692;9.020;2023-05-16T14:54:16;11.70;99.90
4058;DHT22;2044;48.692;9.020;2023-05-16T14:56:44;11.70;99.90
4058;DHT22;2044;48.692;9.020;2023-05-16T14:59:11;12.30;99.90
4058;DHT22;2044;48.692;9.020;2023-05-16T15:01:39;12.00;99.90
4058;DHT22;2044;48.692;9.020;2023-05-16T15:04:06;12.20;99.90
4058;DHT22;2044;48.692;9.020;2023-05-16T15:06:32;12.30;99.90
4058;DHT22;2044;48.692;9.020;2023-05-16T15:09:00;12.40;99.90
4058;DHT22;2044;48.692;9.020;2023-05-16T15:11:27;12.40;99.90
4058;DHT22;2044;48.692;9.020;2023-05-16T15:16:22;12.10;99.90
4058;DHT22;2044;48.692;9.020;2023-05-16T15:18:50;12.00;99.90
4058;DHT22;2044;48.692;9.020;2023-05-16T15:21:17;12.00;99.90
4058;DHT22;2044;48.692;9.020;2023-05-16T15:23:44;12.00;99.90
